Time;durP1;ratioP1;P1;durP2;ratioP2;P2;SDS_P1;SDS_P2;PMS_P1;PMS_P2;Temp;Humidity;BMP_temperature;BMP_pressure;BME280_temperature;BME280_humidity;BME280_pressure;Samples;Min_cycle;Max_cycle;Signal;HPM_P1;HPM_P2
2023/09/28 00:00:59;;;;;;;19.00;4.17;;;;;;;;;;4991697;28;20229;-78
2023/09/28 00:03:27;;;;;;;19.00;4.03;;;;;;;;;;4991934;28;20240;-76
2023/09/28 00:05:53;;;;;;;19.00;4.93;;;;;;;;;;4991508;28;20325;-77
2023/09/28 00:08:22;;;;;;;20.37;3.63;;;;;;;;;;4991955;28;20209;-77
2023/09/28 00:10:48;;;;;;;18.53;3.50;;;;;;;;;;4991492;28;20874;-77
2023/09/28 00:13:15;;;;;;;22.43;3.83;;;;;;;;;;4994428;28;20206;-78
2023/09/28 00:15:41;;;;;;;14.70;3.77;;;;;;;;;;4995860;28;20202;-78
2023/09/28 00:18:08;;;;;;;19.57;3.33;;;;;;;;;;4995482;28;20205;-78
2023/09/28 00:20:35;;;;;;;20.57;3.83;;;;;;;;;;4995687;28;20209;-77
2023/09/28 00:23:03;;;;;;;21.23;3.83;;;;;;;;;;4995206;28;20237;-78
2023/09/28 00:25:31;;;;;;;23.97;3.40;;;;;;;;;;4995130;28;20264;-77
2023/09/28 00:28:00;;;;;;;18.10;3.57;;;;;;;;;;4995400;28;20308;-77
2023/09/28 00:30:26;;;;;;;18.23;3.63;;;;;;;;;;4995611;28;20201;-77
2023/09/28 00:32:54;;;;;;;17.90;3.33;;;;;;;;;;4995221;28;20202;-77
2023/09/28 00:35:21;;;;;;;20.73;3.43;;;;;;;;;;4995258;28;20194;-77
2023/09/28 00:37:49;;;;;;;25.17;3.83;;;;;;;;;;4995567;28;20582;-77
2023/09/28 00:40:18;;;;;;;19.93;3.33;;;;;;;;;;4995350;28;20759;-77
2023/09/28 00:42:46;;;;;;;16.90;3.30;;;;;;;;;;4995287;28;20208;-77
2023/09/28 00:45:14;;;;;;;19.93;3.83;;;;;;;;;;4995341;28;20221;-77
2023/09/28 00:47:41;;;;;;;22.17;4.37;;;;;;;;;;4994967;28;20676;-77
2023/09/28 00:50:10;;;;;;;22.53;4.00;;;;;;;;;;4995113;28;20224;-78
2023/09/28 00:52:37;;;;;;;20.40;3.80;;;;;;;;;;4995283;28;20272;-77
2023/09/28 00:55:06;;;;;;;18.87;4.07;;;;;;;;;;4995184;28;20213;-78
2023/09/28 00:57:33;;;;;;;16.37;3.23;;;;;;;;;;4994916;28;20202;-78
2023/09/28 01:00:09;;;;;;;23.07;3.70;;;;;;;;;;4994589;28;20232;-78
2023/09/28 01:02:35;;;;;;;18.70;3.53;;;;;;;;;;4994922;28;20563;-76
2023/09/28 01:05:04;;;;;;;17.23;3.27;;;;;;;;;;4995224;28;20284;-77
2023/09/28 01:07:31;;;;;;;16.10;3.50;;;;;;;;;;4995000;28;20202;-77
2023/09/28 01:09:58;;;;;;;19.47;3.97;;;;;;;;;;4994644;28;20209;-77
2023/09/28 01:12:26;;;;;;;19.03;3.77;;;;;;;;;;4994561;28;20204;-77
2023/09/28 01:14:56;;;;;;;20.30;3.90;;;;;;;;;;4994620;28;20202;-77
2023/09/28 01:17:24;;;;;;;24.30;4.20;;;;;;;;;;4994446;28;20202;-77
2023/09/28 01:19:53;;;;;;;22.60;3.80;;;;;;;;;;4994737;28;20197;-77
2023/09/28 01:22:22;;;;;;;21.30;3.57;;;;;;;;;;4994294;28;20299;-77
2023/09/28 01:24:48;;;;;;;17.23;3.33;;;;;;;;;;4993458;28;20240;-76
2023/09/28 01:27:15;;;;;;;16.70;3.73;;;;;;;;;;4994650;28;20201;-76
2023/09/28 01:29:42;;;;;;;27.00;3.83;;;;;;;;;;4993905;28;20297;-77
2023/09/28 01:32:09;;;;;;;24.00;4.17;;;;;;;;;;4994546;28;20209;-76
2023/09/28 01:34:35;;;;;;;20.47;3.20;;;;;;;;;;4994244;28;20288;-78
2023/09/28 01:37:02;;;;;;;19.37;3.43;;;;;;;;;;4993769;28;20740;-77
2023/09/28 01:39:30;;;;;;;19.27;4.00;;;;;;;;;;4993961;28;20765;-78
2023/09/28 01:41:57;;;;;;;21.17;3.40;;;;;;;;;;4994413;28;20216;-77
2023/09/28 01:44:24;;;;;;;16.27;3.53;;;;;;;;;;4993836;28;20241;-77
2023/09/28 01:46:51;;;;;;;24.43;4.27;;;;;;;;;;4993926;28;20229;-78
2023/09/28 01:49:17;;;;;;;16.07;3.47;;;;;;;;;;4994131;28;20288;-77
2023/09/28 01:51:44;;;;;;;20.43;4.00;;;;;;;;;;4985590;28;20681;-77
2023/09/28 01:54:10;;;;;;;21.83;3.70;;;;;;;;;;4979436;28;20242;-78
2023/09/28 01:56:39;;;;;;;23.10;4.00;;;;;;;;;;4974448;28;20207;-77
2023/09/28 01:59:05;;;;;;;23.37;3.97;;;;;;;;;;4974112;28;20642;-77
2023/09/28 02:01:32;;;;;;;18.23;3.60;;;;;;;;;;4974311;28;20206;-77
2023/09/28 02:03:58;;;;;;;20.60;3.70;;;;;;;;;;4974618;28;20225;-76
2023/09/28 02:06:25;;;;;;;18.07;3.57;;;;;;;;;;4974367;28;20234;-77
2023/09/28 02:08:52;;;;;;;22.00;3.87;;;;;;;;;;4974244;28;20290;-78
2023/09/28 02:11:19;;;;;;;20.57;3.27;;;;;;;;;;4974204;28;20198;-77
2023/09/28 02:13:46;;;;;;;24.43;4.10;;;;;;;;;;4973902;28;20290;-77
2023/09/28 02:16:14;;;;;;;20.77;3.70;;;;;;;;;;4974575;28;20211;-77
2023/09/28 02:18:42;;;;;;;18.83;3.93;;;;;;;;;;4985906;28;20288;-75
2023/09/28 02:21:14;;;;;;;21.50;3.50;;;;;;;;;;4993459;28;20198;-77
2023/09/28 02:23:40;;;;;;;17.97;3.67;;;;;;;;;;4993579;28;20325;-77
2023/09/28 02:26:07;;;;;;;21.87;3.27;;;;;;;;;;4993207;28;20233;-76
2023/09/28 02:28:34;;;;;;;20.10;3.90;;;;;;;;;;4992603;28;20197;-77
2023/09/28 02:31:09;;;;;;;20.10;3.30;;;;;;;;;;4993223;28;20198;-77
2023/09/28 02:33:35;;;;;;;28.37;3.67;;;;;;;;;;4993297;28;20207;-77
2023/09/28 02:36:02;;;;;;;28.40;4.83;;;;;;;;;;4992319;28;20202;-76
2023/09/28 02:38:29;;;;;;;24.03;3.53;;;;;;;;;;4992862;28;20198;-77
2023/09/28 02:40:56;;;;;;;20.33;3.40;;;;;;;;;;4992886;28;20779;-77
2023/09/28 02:43:22;;;;;;;20.83;3.53;;;;;;;;;;4992521;28;20221;-77
2023/09/28 02:45:50;;;;;;;27.73;3.87;;;;;;;;;;4993307;28;20229;-77
2023/09/28 02:48:17;;;;;;;21.57;3.77;;;;;;;;;;4992824;28;20225;-77
2023/09/28 02:50:44;;;;;;;20.23;4.10;;;;;;;;;;4993106;28;20209;-78
2023/09/28 02:53:11;;;;;;;16.83;3.67;;;;;;;;;;4993245;28;20289;-78
2023/09/28 02:55:38;;;;;;;23.63;3.87;;;;;;;;;;4992606;28;20202;-77
2023/09/28 02:58:04;;;;;;;24.50;3.77;;;;;;;;;;4992814;28;20229;-77
2023/09/28 03:00:33;;;;;;;27.23;4.57;;;;;;;;;;4992782;28;20212;-76
2023/09/28 03:03:09;;;;;;;21.47;4.00;;;;;;;;;;4992600;28;20201;-77
2023/09/28 03:05:38;;;;;;;25.33;4.27;;;;;;;;;;4992206;28;20738;-76
2023/09/28 03:08:09;;;;;;;21.80;4.13;;;;;;;;;;4992474;28;20230;-77
2023/09/28 03:10:36;;;;;;;18.63;3.30;;;;;;;;;;4992335;28;20592;-77
2023/09/28 03:13:04;;;;;;;21.93;3.50;;;;;;;;;;4992710;28;20201;-77
2023/09/28 03:15:31;;;;;;;24.10;3.77;;;;;;;;;;4992140;28;20237;-76
2023/09/28 03:17:58;;;;;;;28.23;4.33;;;;;;;;;;4992266;28;20209;-77
2023/09/28 03:20:26;;;;;;;23.70;3.90;;;;;;;;;;4992706;28;20206;-76
2023/09/28 03:22:53;;;;;;;21.33;3.73;;;;;;;;;;4992255;28;20238;-76
2023/09/28 03:25:22;;;;;;;22.33;3.60;;;;;;;;;;4991648;28;20237;-77
2023/09/28 03:27:49;;;;;;;20.67;3.07;;;;;;;;;;4992516;28;20201;-78
2023/09/28 03:30:16;;;;;;;21.03;3.83;;;;;;;;;;4992144;28;20204;-78
2023/09/28 03:32:43;;;;;;;27.37;3.87;;;;;;;;;;4992123;28;20206;-77
2023/09/28 03:35:11;;;;;;;22.03;3.90;;;;;;;;;;4992096;28;20759;-78
2023/09/28 03:37:38;;;;;;;24.00;4.63;;;;;;;;;;4992107;28;20202;-77
2023/09/28 03:40:09;;;;;;;22.50;3.60;;;;;;;;;;4991981;28;20232;-78
2023/09/28 03:42:37;;;;;;;16.60;3.50;;;;;;;;;;4992116;28;20202;-77
2023/09/28 03:45:05;;;;;;;23.67;3.97;;;;;;;;;;4991971;28;20209;-77
2023/09/28 03:47:34;;;;;;;21.77;4.13;;;;;;;;;;4991442;28;20677;-77
2023/09/28 03:50:01;;;;;;;26.23;3.93;;;;;;;;;;4992368;28;20202;-78
2023/09/28 03:52:29;;;;;;;21.73;4.20;;;;;;;;;;4992053;28;20206;-77
2023/09/28 03:54:57;;;;;;;23.37;4.23;;;;;;;;;;4991673;28;20600;-77
2023/09/28 03:57:26;;;;;;;26.23;5.53;;;;;;;;;;4991839;28;20205;-78
2023/09/28 03:59:53;;;;;;;23.20;4.03;;;;;;;;;;4991656;28;20284;-77
2023/09/28 04:02:20;;;;;;;21.83;4.20;;;;;;;;;;4991716;28;20256;-77
2023/09/28 04:04:47;;;;;;;21.00;3.80;;;;;;;;;;4991788;28;20234;-77
2023/09/28 04:07:14;;;;;;;27.57;3.93;;;;;;;;;;4991710;28;20324;-77
2023/09/28 04:09:41;;;;;;;20.43;3.53;;;;;;;;;;4991492;28;20297;-76
2023/09/28 04:12:09;;;;;;;17.47;3.90;;;;;;;;;;4991659;28;20237;-77
2023/09/28 04:14:37;;;;;;;23.77;4.33;;;;;;;;;;4992035;28;20204;-76
2023/09/28 04:17:04;;;;;;;25.47;4.47;;;;;;;;;;4991854;28;20240;-77
2023/09/28 04:19:31;;;;;;;19.47;3.97;;;;;;;;;;4991633;28;20632;-77
2023/09/28 04:21:59;;;;;;;19.60;3.90;;;;;;;;;;4991717;28;20705;-78
2023/09/28 04:24:26;;;;;;;24.53;4.20;;;;;;;;;;4991075;28;20252;-77
2023/09/28 04:26:57;;;;;;;23.67;4.23;;;;;;;;;;4991531;28;20267;-76
2023/09/28 04:29:25;;;;;;;22.63;3.90;;;;;;;;;;4991828;28;20198;-77
2023/09/28 04:31:53;;;;;;;21.57;3.97;;;;;;;;;;4991781;28;20194;-77
2023/09/28 04:34:21;;;;;;;17.77;3.33;;;;;;;;;;4991499;28;20201;-77
2023/09/28 04:36:50;;;;;;;20.93;4.33;;;;;;;;;;4991384;28;20226;-77
2023/09/28 04:39:17;;;;;;;18.73;3.43;;;;;;;;;;4991479;28;20210;-76
2023/09/28 04:41:45;;;;;;;21.87;3.40;;;;;;;;;;4991446;28;20202;-77
2023/09/28 04:44:12;;;;;;;20.40;3.53;;;;;;;;;;4991687;28;20292;-77
2023/09/28 04:46:39;;;;;;;21.83;3.73;;;;;;;;;;4991788;28;20320;-78
2023/09/28 04:49:08;;;;;;;17.73;3.50;;;;;;;;;;4991326;28;20640;-77
2023/09/28 04:51:36;;;;;;;17.90;3.33;;;;;;;;;;4991454;28;20198;-77
2023/09/28 04:54:04;;;;;;;24.67;4.13;;;;;;;;;;4991141;28;20293;-77
2023/09/28 04:56:32;;;;;;;22.70;3.53;;;;;;;;;;4991324;28;20194;-77
2023/09/28 04:59:00;;;;;;;19.77;3.57;;;;;;;;;;4993394;28;20297;-77
2023/09/28 05:01:27;;;;;;;16.73;3.50;;;;;;;;;;4994885;28;20194;-78
2023/09/28 05:03:54;;;;;;;22.47;3.77;;;;;;;;;;4995017;28;20598;-79
2023/09/28 05:06:23;;;;;;;22.33;3.77;;;;;;;;;;4994701;28;20225;-77
2023/09/28 05:08:50;;;;;;;22.57;3.47;;;;;;;;;;4994300;28;20202;-77
2023/09/28 05:11:17;;;;;;;21.03;3.60;;;;;;;;;;4994996;28;20304;-77
2023/09/28 05:13:45;;;;;;;22.17;3.60;;;;;;;;;;4992967;28;20305;-77
2023/09/28 05:16:12;;;;;;;22.73;3.97;;;;;;;;;;4994489;28;20293;-77
2023/09/28 05:18:39;;;;;;;18.60;3.23;;;;;;;;;;4989782;28;20202;-77
2023/09/28 05:21:07;;;;;;;20.93;3.70;;;;;;;;;;4994472;28;20198;-77
2023/09/28 05:23:35;;;;;;;17.20;3.53;;;;;;;;;;4994055;28;20265;-77
2023/09/28 05:26:03;;;;;;;23.17;4.10;;;;;;;;;;4961383;28;20256;-76
2023/09/28 05:28:30;;;;;;;20.40;4.07;;;;;;;;;;4962335;28;20210;-77
2023/09/28 05:30:57;;;;;;;26.50;4.20;;;;;;;;;;4968502;28;20207;-77
2023/09/28 05:33:24;;;;;;;22.30;4.10;;;;;;;;;;4994041;28;20297;-77
2023/09/28 05:35:51;;;;;;;18.40;3.50;;;;;;;;;;4986527;28;20226;-77
2023/09/28 05:38:18;;;;;;;18.57;3.63;;;;;;;;;;4963353;28;20217;-76
2023/09/28 05:40:47;;;;;;;13.93;3.20;;;;;;;;;;4988619;28;20577;-76
2023/09/28 05:43:14;;;;;;;23.90;4.37;;;;;;;;;;4960815;28;20289;-75
2023/09/28 05:45:41;;;;;;;22.03;3.90;;;;;;;;;;4954422;29;20207;-77
2023/09/28 05:48:08;;;;;;;18.30;3.67;;;;;;;;;;4954002;29;20290;-77
2023/09/28 05:50:36;;;;;;;15.53;3.23;;;;;;;;;;4954752;29;20242;-77
2023/09/28 05:53:03;;;;;;;21.73;4.80;;;;;;;;;;4954362;29;20250;-78
2023/09/28 05:55:30;;;;;;;22.40;3.83;;;;;;;;;;4954758;29;20676;-77
2023/09/28 05:57:58;;;;;;;17.73;3.47;;;;;;;;;;4955549;29;20246;-78
2023/09/28 06:00:26;;;;;;;19.40;3.30;;;;;;;;;;4955308;29;20701;-78
2023/09/28 06:02:53;;;;;;;23.47;3.67;;;;;;;;;;4955071;29;20310;-77
2023/09/28 06:05:20;;;;;;;23.90;3.80;;;;;;;;;;4954805;29;20270;-78
2023/09/28 06:07:47;;;;;;;17.77;3.83;;;;;;;;;;4955184;29;20263;-77
2023/09/28 06:10:15;;;;;;;15.90;3.70;;;;;;;;;;4955134;28;20282;-77
2023/09/28 06:12:42;;;;;;;18.93;3.50;;;;;;;;;;4954960;29;20732;-77
2023/09/28 06:15:11;;;;;;;17.33;3.23;;;;;;;;;;4955146;29;20213;-77
2023/09/28 06:17:39;;;;;;;17.93;3.90;;;;;;;;;;4958502;28;20214;-77
2023/09/28 06:20:07;;;;;;;20.80;3.67;;;;;;;;;;4973670;28;20206;-76
2023/09/28 06:22:35;;;;;;;22.77;4.07;;;;;;;;;;4978989;28;20257;-77
2023/09/28 06:25:03;;;;;;;20.57;3.87;;;;;;;;;;4993446;28;20202;-77
2023/09/28 06:27:30;;;;;;;20.80;3.50;;;;;;;;;;4993686;28;20225;-78
2023/09/28 06:29:57;;;;;;;19.77;3.73;;;;;;;;;;4993323;28;20243;-77
2023/09/28 06:32:26;;;;;;;19.80;4.47;;;;;;;;;;4993256;28;20285;-77
2023/09/28 06:34:54;;;;;;;19.77;4.27;;;;;;;;;;4993192;28;20194;-76
2023/09/28 06:37:21;;;;;;;18.47;3.43;;;;;;;;;;4993310;28;20292;-78
2023/09/28 06:39:48;;;;;;;17.50;3.27;;;;;;;;;;4993615;28;20233;-77
2023/09/28 06:42:15;;;;;;;18.77;3.87;;;;;;;;;;4993324;28;20208;-78
2023/09/28 06:44:42;;;;;;;20.10;3.43;;;;;;;;;;4993129;28;20394;-77
2023/09/28 06:47:10;;;;;;;16.97;4.13;;;;;;;;;;4993080;28;20328;-77
2023/09/28 06:49:38;;;;;;;18.57;3.80;;;;;;;;;;4992077;28;20607;-78
2023/09/28 06:52:05;;;;;;;16.90;3.20;;;;;;;;;;4993171;28;20225;-77
2023/09/28 06:54:33;;;;;;;20.87;3.63;;;;;;;;;;4992673;28;20198;-78
2023/09/28 06:57:02;;;;;;;18.70;3.03;;;;;;;;;;4992917;28;20210;-78
2023/09/28 06:59:30;;;;;;;18.30;3.57;;;;;;;;;;4993048;28;20268;-77
2023/09/28 07:01:57;;;;;;;16.27;3.73;;;;;;;;;;4992795;28;20198;-77
2023/09/28 07:04:24;;;;;;;18.40;3.83;;;;;;;;;;4992437;28;20764;-78
2023/09/28 07:06:53;;;;;;;21.23;3.50;;;;;;;;;;4992722;28;20716;-77
2023/09/28 07:09:20;;;;;;;17.87;4.13;;;;;;;;;;4992925;28;20260;-77
2023/09/28 07:11:47;;;;;;;18.77;3.85;;;;;;;;;;4992551;28;20198;-76
2023/09/28 07:14:15;;;;;;;17.57;3.40;;;;;;;;;;4992905;28;20198;-77
2023/09/28 07:16:42;;;;;;;20.17;3.80;;;;;;;;;;4992376;28;20233;-77
2023/09/28 07:19:09;;;;;;;13.70;4.50;;;;;;;;;;4992381;28;20209;-77
2023/09/28 07:21:37;;;;;;;15.43;3.97;;;;;;;;;;4991822;28;20293;-77
2023/09/28 07:24:06;;;;;;;17.20;3.60;;;;;;;;;;4992481;28;20234;-78
2023/09/28 07:26:34;;;;;;;17.55;3.55;;;;;;;;;;4992257;28;20722;-77
2023/09/28 07:29:01;;;;;;;16.17;4.07;;;;;;;;;;4992450;28;20209;-77
2023/09/28 07:31:28;;;;;;;17.50;3.72;;;;;;;;;;4992625;28;20639;-76
2023/09/28 07:33:56;;;;;;;16.40;3.70;;;;;;;;;;4992167;28;20198;-77
2023/09/28 07:36:24;;;;;;;20.80;3.60;;;;;;;;;;4992483;28;20201;-79
2023/09/28 07:38:51;;;;;;;16.52;3.70;;;;;;;;;;4992506;28;20292;-78
2023/09/28 07:41:19;;;;;;;15.32;3.85;;;;;;;;;;4992829;28;20264;-78
2023/09/28 07:43:47;;;;;;;19.90;3.78;;;;;;;;;;4992513;28;20278;-78
2023/09/28 07:46:14;;;;;;;13.55;3.35;;;;;;;;;;4992017;28;20225;-79
2023/09/28 07:48:41;;;;;;;19.30;3.38;;;;;;;;;;4992213;28;20295;-79
2023/09/28 07:51:08;;;;;;;18.33;3.88;;;;;;;;;;4992243;28;20237;-79
2023/09/28 07:53:36;;;;;;;16.17;3.83;;;;;;;;;;4992041;28;20700;-80
2023/09/28 07:56:03;;;;;;;14.95;3.65;;;;;;;;;;4992149;28;20229;-79
2023/09/28 07:58:31;;;;;;;17.52;4.10;;;;;;;;;;4992424;28;20283;-79
2023/09/28 08:00:59;;;;;;;10.88;2.97;;;;;;;;;;4991547;28;20233;-80
2023/09/28 08:03:26;;;;;;;16.00;3.47;;;;;;;;;;4992022;28;20688;-79
2023/09/28 08:05:54;;;;;;;19.00;3.63;;;;;;;;;;4992159;28;20276;-80
2023/09/28 08:08:22;;;;;;;20.17;4.03;;;;;;;;;;4992183;28;20348;-80
2023/09/28 08:10:49;;;;;;;16.80;4.22;;;;;;;;;;4991696;28;20198;-80
2023/09/28 08:13:16;;;;;;;13.77;4.20;;;;;;;;;;4992010;28;20281;-79
2023/09/28 08:15:45;;;;;;;17.83;3.42;;;;;;;;;;4991608;28;20241;-78
2023/09/28 08:18:13;;;;;;;13.30;3.78;;;;;;;;;;4991777;28;20256;-79
2023/09/28 08:20:40;;;;;;;15.40;4.28;;;;;;;;;;4991806;28;20212;-79
2023/09/28 08:23:07;;;;;;;16.02;4.10;;;;;;;;;;4992125;28;20313;-80
2023/09/28 08:25:35;;;;;;;16.40;4.05;;;;;;;;;;4991787;28;20280;-77
2023/09/28 08:28:02;;;;;;;18.75;4.25;;;;;;;;;;4991745;28;20225;-79
2023/09/28 08:30:30;;;;;;;13.90;4.45;;;;;;;;;;4991367;28;20296;-78
2023/09/28 08:32:58;;;;;;;22.08;4.63;;;;;;;;;;4991720;28;20198;-79
2023/09/28 08:35:26;;;;;;;16.50;5.00;;;;;;;;;;4994550;28;20221;-79
2023/09/28 08:37:54;;;;;;;15.25;3.92;;;;;;;;;;4995829;28;20209;-79
2023/09/28 08:40:21;;;;;;;20.20;4.38;;;;;;;;;;4995464;28;20612;-79
2023/09/28 08:42:49;;;;;;;16.00;4.00;;;;;;;;;;4995230;28;20288;-78
2023/09/28 08:45:16;;;;;;;20.38;4.63;;;;;;;;;;4995700;28;20291;-79
2023/09/28 08:47:49;;;;;;;12.88;4.10;;;;;;;;;;4994804;28;20715;-79
2023/09/28 08:50:19;;;;;;;18.80;4.28;;;;;;;;;;4995578;28;20202;-78
2023/09/28 08:52:47;;;;;;;17.20;5.13;;;;;;;;;;4995329;28;20296;-79
2023/09/28 08:55:14;;;;;;;22.45;4.25;;;;;;;;;;4995582;28;20290;-78
2023/09/28 08:57:43;;;;;;;18.73;4.00;;;;;;;;;;4995175;28;20229;-79
2023/09/28 09:00:13;;;;;;;18.58;4.22;;;;;;;;;;4994704;28;20252;-79
2023/09/28 09:02:42;;;;;;;17.77;4.03;;;;;;;;;;4995072;28;20198;-79
2023/09/28 09:05:11;;;;;;;17.20;3.85;;;;;;;;;;4995258;28;20202;-80
2023/09/28 09:07:42;;;;;;;15.23;3.75;;;;;;;;;;4994848;28;20290;-79
2023/09/28 09:10:10;;;;;;;18.15;4.60;;;;;;;;;;4994979;28;20194;-80
2023/09/28 09:12:37;;;;;;;19.25;3.78;;;;;;;;;;4994717;28;20218;-78
2023/09/28 09:15:05;;;;;;;13.45;4.35;;;;;;;;;;4994587;28;20237;-78
2023/09/28 09:17:33;;;;;;;16.23;4.00;;;;;;;;;;4994965;28;20328;-79
2023/09/28 09:20:00;;;;;;;17.05;4.90;;;;;;;;;;4994828;28;20202;-79
2023/09/28 09:22:29;;;;;;;16.50;5.32;;;;;;;;;;4994524;28;20769;-79
2023/09/28 09:24:58;;;;;;;17.25;4.70;;;;;;;;;;4995032;28;20206;-79
2023/09/28 09:27:29;;;;;;;18.00;5.05;;;;;;;;;;4994435;28;20225;-80
2023/09/28 09:29:58;;;;;;;15.82;4.40;;;;;;;;;;4994389;28;20200;-80
2023/09/28 09:32:27;;;;;;;19.75;4.43;;;;;;;;;;4994631;28;20202;-80
2023/09/28 09:34:55;;;;;;;19.13;4.85;;;;;;;;;;4994649;28;20221;-80
2023/09/28 09:37:22;;;;;;;15.23;4.07;;;;;;;;;;4994892;28;20248;-80
2023/09/28 09:39:49;;;;;;;19.08;4.65;;;;;;;;;;4994902;28;20260;-80
2023/09/28 09:42:27;;;;;;;16.50;4.63;;;;;;;;;;4994067;28;20222;-79
2023/09/28 09:44:56;;;;;;;20.50;4.55;;;;;;;;;;4994007;28;20252;-80
2023/09/28 09:47:23;;;;;;;19.50;4.35;;;;;;;;;;4994037;28;20229;-80
2023/09/28 09:49:53;;;;;;;15.40;3.70;;;;;;;;;;4994698;28;20236;-80
2023/09/28 09:52:20;;;;;;;19.05;4.60;;;;;;;;;;4994347;28;20201;-80
2023/09/28 09:54:48;;;;;;;14.30;4.32;;;;;;;;;;4994077;28;20201;-80
2023/09/28 09:57:17;;;;;;;15.38;4.38;;;;;;;;;;4993224;28;20690;-79
2023/09/28 09:59:48;;;;;;;16.88;3.80;;;;;;;;;;4994341;28;20676;-79
2023/09/28 10:02:22;;;;;;;17.15;4.13;;;;;;;;;;4993812;28;20657;-81
2023/09/28 10:04:51;;;;;;;17.02;4.40;;;;;;;;;;4993870;28;20205;-79
2023/09/28 10:07:19;;;;;;;14.52;4.05;;;;;;;;;;4994161;28;20276;-79
2023/09/28 10:09:46;;;;;;;16.88;3.88;;;;;;;;;;4993657;28;20261;-79
2023/09/28 10:12:14;;;;;;;15.52;4.20;;;;;;;;;;4993339;28;20221;-79
2023/09/28 10:14:41;;;;;;;16.83;3.80;;;;;;;;;;4994045;28;20281;-79
2023/09/28 10:17:11;;;;;;;17.13;3.85;;;;;;;;;;4993868;28;20225;-77
2023/09/28 10:19:39;;;;;;;16.90;3.53;;;;;;;;;;4993753;28;20201;-79
2023/09/28 10:22:06;;;;;;;15.07;3.75;;;;;;;;;;4993730;28;20685;-78
2023/09/28 10:24:35;;;;;;;14.73;3.83;;;;;;;;;;4993549;28;20250;-78
2023/09/28 10:27:08;;;;;;;19.55;3.80;;;;;;;;;;4993190;28;20198;-79
2023/09/28 10:29:35;;;;;;;13.60;3.70;;;;;;;;;;4993687;28;20198;-79
2023/09/28 10:32:03;;;;;;;19.85;3.90;;;;;;;;;;4993849;28;20625;-79
2023/09/28 10:34:31;;;;;;;16.65;3.47;;;;;;;;;;4993247;28;20569;-78
2023/09/28 10:37:18;;;;;;;14.45;3.80;;;;;;;;;;4993465;28;20202;-79
2023/09/28 10:39:49;;;;;;;12.23;3.55;;;;;;;;;;4981788;28;20201;-80
2023/09/28 10:42:17;;;;;;;14.68;3.55;;;;;;;;;;4993128;28;20357;-79
2023/09/28 10:44:48;;;;;;;16.05;3.35;;;;;;;;;;4993232;28;20288;-82
2023/09/28 10:47:16;;;;;;;18.63;4.40;;;;;;;;;;4993230;28;20222;-79
2023/09/28 10:49:45;;;;;;;16.77;3.70;;;;;;;;;;4993162;28;20209;-79
2023/09/28 10:52:12;;;;;;;15.73;3.65;;;;;;;;;;4993187;28;20688;-79
2023/09/28 10:54:41;;;;;;;15.20;3.33;;;;;;;;;;4992827;28;20221;-79
2023/09/28 10:57:09;;;;;;;17.27;4.00;;;;;;;;;;4992399;28;20225;-79
2023/09/28 10:59:40;;;;;;;17.83;4.05;;;;;;;;;;4992591;28;20198;-79
2023/09/28 11:02:08;;;;;;;17.20;3.58;;;;;;;;;;4992853;28;20208;-79
2023/09/28 11:04:38;;;;;;;12.50;3.10;;;;;;;;;;4992886;28;20677;-79
2023/09/28 11:07:07;;;;;;;12.50;3.22;;;;;;;;;;4992726;28;20208;-79
2023/09/28 11:09:34;;;;;;;12.98;3.30;;;;;;;;;;4992192;28;20261;-79
2023/09/28 11:12:08;;;;;;;15.38;3.05;;;;;;;;;;4992549;28;20565;-79
2023/09/28 11:14:36;;;;;;;13.68;3.13;;;;;;;;;;4993038;28;20202;-79
2023/09/28 11:17:03;;;;;;;13.55;3.50;;;;;;;;;;4992229;28;20260;-78
2023/09/28 11:19:30;;;;;;;13.95;3.38;;;;;;;;;;4992703;28;20287;-79
2023/09/28 11:21:58;;;;;;;16.10;3.65;;;;;;;;;;4992346;28;20237;-80
2023/09/28 11:24:26;;;;;;;12.23;2.90;;;;;;;;;;4992477;28;20205;-79
2023/09/28 11:26:54;;;;;;;13.40;3.38;;;;;;;;;;4992482;28;20632;-79
2023/09/28 11:29:21;;;;;;;12.98;3.20;;;;;;;;;;4992342;28;20767;-78
2023/09/28 11:31:53;;;;;;;11.90;2.65;;;;;;;;;;4992922;28;20202;-78
2023/09/28 11:34:28;;;;;;;17.45;2.90;;;;;;;;;;4992418;28;20209;-79
2023/09/28 11:36:56;;;;;;;13.90;3.42;;;;;;;;;;4992291;28;20608;-79
2023/09/28 11:39:25;;;;;;;14.38;3.25;;;;;;;;;;4991687;28;20201;-77
2023/09/28 11:42:00;;;;;;;15.52;3.78;;;;;;;;;;4992379;28;20228;-79
2023/09/28 11:44:27;;;;;;;13.00;3.17;;;;;;;;;;4992740;28;20224;-79
2023/09/28 11:46:54;;;;;;;9.63;2.72;;;;;;;;;;4992270;28;20198;-79
2023/09/28 11:49:22;;;;;;;15.35;2.78;;;;;;;;;;4992068;28;20324;-78
2023/09/28 11:51:49;;;;;;;12.82;2.75;;;;;;;;;;4992182;28;20292;-78
2023/09/28 11:54:18;;;;;;;18.48;3.53;;;;;;;;;;4992057;28;20257;-78
2023/09/28 11:56:45;;;;;;;13.80;3.25;;;;;;;;;;4992270;28;20775;-77
2023/09/28 11:59:15;;;;;;;12.25;3.67;;;;;;;;;;4992096;28;20193;-78
2023/09/28 12:01:42;;;;;;;14.35;3.50;;;;;;;;;;4991942;28;20575;-78
2023/09/28 12:04:10;;;;;;;17.25;3.38;;;;;;;;;;4992100;28;20198;-78
2023/09/28 12:06:37;;;;;;;13.80;3.33;;;;;;;;;;4992306;28;20669;-79
2023/09/28 12:09:06;;;;;;;17.17;3.40;;;;;;;;;;4993771;28;20229;-79
2023/09/28 12:11:33;;;;;;;15.85;3.13;;;;;;;;;;4996018;28;20229;-79
2023/09/28 12:14:01;;;;;;;11.63;3.33;;;;;;;;;;4996096;28;20206;-79
2023/09/28 12:16:29;;;;;;;16.95;3.60;;;;;;;;;;4996305;28;20209;-79
2023/09/28 12:18:57;;;;;;;19.58;3.53;;;;;;;;;;4995792;28;20201;-78
2023/09/28 12:21:24;;;;;;;18.15;4.30;;;;;;;;;;4995749;28;20201;-79
2023/09/28 12:23:51;;;;;;;13.23;3.47;;;;;;;;;;4995246;28;20800;-79
2023/09/28 12:26:18;;;;;;;17.08;3.75;;;;;;;;;;4995657;28;20229;-79
2023/09/28 12:28:46;;;;;;;16.40;4.03;;;;;;;;;;4995959;28;20312;-78
2023/09/28 12:31:13;;;;;;;16.30;3.85;;;;;;;;;;4995689;28;20240;-79
2023/09/28 12:33:41;;;;;;;14.48;4.07;;;;;;;;;;4995729;28;20710;-79
2023/09/28 12:36:09;;;;;;;13.75;3.72;;;;;;;;;;4995383;28;20284;-79
2023/09/28 12:38:36;;;;;;;17.65;4.20;;;;;;;;;;4995929;28;20293;-79
2023/09/28 12:41:05;;;;;;;17.15;4.25;;;;;;;;;;4995692;28;20202;-79
2023/09/28 12:43:32;;;;;;;18.08;3.47;;;;;;;;;;4995116;28;20205;-79
2023/09/28 12:46:00;;;;;;;16.70;4.13;;;;;;;;;;4995257;28;20712;-78
2023/09/28 12:48:27;;;;;;;18.42;3.63;;;;;;;;;;4995492;28;20332;-78
2023/09/28 12:50:55;;;;;;;14.25;3.50;;;;;;;;;;4994899;28;20233;-78
2023/09/28 12:53:25;;;;;;;13.77;3.50;;;;;;;;;;4995278;28;20676;-79
2023/09/28 12:55:52;;;;;;;17.88;4.30;;;;;;;;;;4995171;28;20638;-78
2023/09/28 12:58:19;;;;;;;15.18;4.00;;;;;;;;;;4995438;28;20206;-79
2023/09/28 13:00:47;;;;;;;14.20;3.40;;;;;;;;;;4995060;28;20635;-79
2023/09/28 13:03:14;;;;;;;15.68;3.22;;;;;;;;;;4995295;28;20206;-79
2023/09/28 13:05:41;;;;;;;15.13;3.90;;;;;;;;;;4994410;28;20292;-79
2023/09/28 13:08:12;;;;;;;13.88;3.50;;;;;;;;;;4995510;28;20198;-80
2023/09/28 13:10:40;;;;;;;16.95;3.95;;;;;;;;;;4995149;28;20234;-79
2023/09/28 13:13:07;;;;;;;13.23;3.05;;;;;;;;;;4994821;28;20284;-80
2023/09/28 13:15:34;;;;;;;13.40;3.55;;;;;;;;;;4994635;28;20202;-78
2023/09/28 13:18:06;;;;;;;15.27;3.83;;;;;;;;;;4994985;28;20256;-80
2023/09/28 13:20:36;;;;;;;14.63;3.78;;;;;;;;;;4993921;28;20345;-79
2023/09/28 13:23:05;;;;;;;11.52;3.00;;;;;;;;;;4994592;28;20233;-80
2023/09/28 13:25:33;;;;;;;12.45;3.70;;;;;;;;;;4994695;28;20198;-79
2023/09/28 13:28:00;;;;;;;14.18;3.70;;;;;;;;;;4995011;28;20280;-79
2023/09/28 13:30:29;;;;;;;13.63;3.88;;;;;;;;;;4994534;28;20688;-79
2023/09/28 13:32:56;;;;;;;12.88;3.60;;;;;;;;;;4994467;28;20249;-79
2023/09/28 13:35:24;;;;;;;16.75;4.60;;;;;;;;;;4994335;28;20208;-79
2023/09/28 13:37:51;;;;;;;16.35;3.50;;;;;;;;;;4994466;28;20197;-79
2023/09/28 13:40:22;;;;;;;15.52;3.75;;;;;;;;;;4994844;28;20593;-80
2023/09/28 13:42:53;;;;;;;11.55;3.65;;;;;;;;;;4994531;28;20204;-79
2023/09/28 13:45:21;;;;;;;14.35;3.50;;;;;;;;;;4994745;28;20202;-80
2023/09/28 13:47:48;;;;;;;12.82;3.58;;;;;;;;;;4994225;28;20257;-79
2023/09/28 13:50:16;;;;;;;16.73;3.83;;;;;;;;;;4994042;28;20272;-80
2023/09/28 13:52:45;;;;;;;14.88;3.65;;;;;;;;;;4994680;28;20194;-79
2023/09/28 13:55:15;;;;;;;14.27;3.90;;;;;;;;;;4994186;28;20198;-79
2023/09/28 13:57:43;;;;;;;17.08;3.95;;;;;;;;;;4994223;28;20197;-79
2023/09/28 14:00:21;;;;;;;17.33;3.80;;;;;;;;;;4994024;28;20206;-80
2023/09/28 14:02:49;;;;;;;16.42;4.03;;;;;;;;;;4994146;28;20204;-79
2023/09/28 14:05:16;;;;;;;15.55;3.65;;;;;;;;;;4993796;28;20665;-79
2023/09/28 14:07:44;;;;;;;17.58;3.40;;;;;;;;;;4987413;28;20201;-79
2023/09/28 14:10:12;;;;;;;12.60;3.75;;;;;;;;;;4993112;28;20233;-79
2023/09/28 14:12:39;;;;;;;16.88;3.58;;;;;;;;;;4991406;28;20283;-78
2023/09/28 14:15:09;;;;;;;14.33;3.33;;;;;;;;;;4645619;28;9999800;-81
2023/09/28 14:17:37;;;;;;;13.60;3.13;;;;;;;;;;4990476;28;20453;-80
2023/09/28 14:20:06;;;;;;;12.57;2.85;;;;;;;;;;4989981;28;20301;-80
2023/09/28 14:22:34;;;;;;;9.93;2.78;;;;;;;;;;4989180;28;20248;-81
2023/09/28 14:25:02;;;;;;;9.48;2.80;;;;;;;;;;4988935;28;20206;-80
2023/09/28 14:27:30;;;;;;;11.95;3.03;;;;;;;;;;4990292;28;20197;-81
2023/09/28 14:29:58;;;;;;;12.07;3.33;;;;;;;;;;4990198;28;20241;-80
2023/09/28 14:32:25;;;;;;;13.57;3.33;;;;;;;;;;4990133;28;20208;-79
2023/09/28 14:34:54;;;;;;;10.30;2.92;;;;;;;;;;4989843;28;20236;-81